sensor_id;sensor_type;location;lat;lon;timestamp;temperature;humidity
39021;DHT22;25188;51.958;5.842;2022-09-09T00:04:36;15.40;99.80
39021;DHT22;25188;51.958;5.842;2022-09-09T00:07:14;15.40;99.80
39021;DHT22;25188;51.958;5.842;2022-09-09T00:12:51;15.40;99.90
39021;DHT22;25188;51.958;5.842;2022-09-09T00:16:07;15.40;99.90
39021;DHT22;25188;51.958;5.842;2022-09-09T00:18:32;15.40;99.90
39021;DHT22;25188;51.958;5.842;2022-09-09T00:21:14;15.40;99.90
39021;DHT22;25188;51.958;5.842;2022-09-09T00:23:54;15.40;99.90
39021;DHT22;25188;51.958;5.842;2022-09-09T00:29:05;15.40;99.90
39021;DHT22;25188;51.958;5.842;2022-09-09T00:31:35;15.40;99.90
39021;DHT22;25188;51.958;5.842;2022-09-09T00:34:13;15.30;99.90
39021;DHT22;25188;51.958;5.842;2022-09-09T00:36:41;15.40;99.90
39021;DHT22;25188;51.958;5.842;2022-09-09T00:39:23;15.40;99.90
39021;DHT22;25188;51.958;5.842;2022-09-09T00:42:20;15.40;99.90
39021;DHT22;25188;51.958;5.842;2022-09-09T00:58:31;15.20;99.90
39021;DHT22;25188;51.958;5.842;2022-09-09T01:01:07;15.20;99.90
39021;DHT22;25188;51.958;5.842;2022-09-09T01:03:52;15.20;99.90
39021;DHT22;25188;51.958;5.842;2022-09-09T01:06:32;15.20;99.90
39021;DHT22;25188;51.958;5.842;2022-09-09T01:09:19;15.10;99.90
39021;DHT22;25188;51.958;5.842;2022-09-09T01:14:30;15.20;99.90
39021;DHT22;25188;51.958;5.842;2022-09-09T01:17:03;15.10;99.90
39021;DHT22;25188;51.958;5.842;2022-09-09T01:28:14;15.00;99.90
39021;DHT22;25188;51.958;5.842;2022-09-09T01:30:41;15.00;99.90
39021;DHT22;25188;51.958;5.842;2022-09-09T01:33:12;15.00;99.90
39021;DHT22;25188;51.958;5.842;2022-09-09T01:36:32;15.00;99.90
39021;DHT22;25188;51.958;5.842;2022-09-09T01:38:49;15.00;99.90
39021;DHT22;25188;51.958;5.842;2022-09-09T01:41:15;15.00;99.90
39021;DHT22;25188;51.958;5.842;2022-09-09T01:43:41;14.90;99.90
39021;DHT22;25188;51.958;5.842;2022-09-09T01:46:07;14.90;99.90
39021;DHT22;25188;51.958;5.842;2022-09-09T01:48:33;15.00;99.90
39021;DHT22;25188;51.958;5.842;2022-09-09T01:50:59;14.90;99.90
39021;DHT22;25188;51.958;5.842;2022-09-09T01:53:24;14.90;99.90
39021;DHT22;25188;51.958;5.842;2022-09-09T01:55:58;14.90;99.90
39021;DHT22;25188;51.958;5.842;2022-09-09T02:04:06;14.80;99.90
39021;DHT22;25188;51.958;5.842;2022-09-09T02:06:39;14.80;99.90
39021;DHT22;25188;51.958;5.842;2022-09-09T02:09:07;14.80;99.90
39021;DHT22;25188;51.958;5.842;2022-09-09T02:11:34;14.80;99.90
39021;DHT22;25188;51.958;5.842;2022-09-09T02:14:05;14.80;99.90
39021;DHT22;25188;51.958;5.842;2022-09-09T02:16:56;14.80;99.90
39021;DHT22;25188;51.958;5.842;2022-09-09T02:19:53;14.80;99.90
39021;DHT22;25188;51.958;5.842;2022-09-09T02:22:22;14.70;99.90
39021;DHT22;25188;51.958;5.842;2022-09-09T02:24:50;14.70;99.90
39021;DHT22;25188;51.958;5.842;2022-09-09T02:27:19;14.70;99.90
39021;DHT22;25188;51.958;5.842;2022-09-09T02:29:49;14.70;99.90
39021;DHT22;25188;51.958;5.842;2022-09-09T02:32:20;14.70;99.90
39021;DHT22;25188;51.958;5.842;2022-09-09T02:35:12;14.70;99.90
39021;DHT22;25188;51.958;5.842;2022-09-09T02:37:40;14.70;99.90
39021;DHT22;25188;51.958;5.842;2022-09-09T02:40:09;14.70;99.90
39021;DHT22;25188;51.958;5.842;2022-09-09T02:42:47;14.70;99.90
39021;DHT22;25188;51.958;5.842;2022-09-09T02:45:15;14.70;99.90
39021;DHT22;25188;51.958;5.842;2022-09-09T02:55:27;14.70;99.90
39021;DHT22;25188;51.958;5.842;2022-09-09T02:57:56;14.70;99.90
39021;DHT22;25188;51.958;5.842;2022-09-09T03:00:25;14.70;99.90
39021;DHT22;25188;51.958;5.842;2022-09-09T03:02:51;14.70;99.90
39021;DHT22;25188;51.958;5.842;2022-09-09T03:05:17;14.70;99.90
39021;DHT22;25188;51.958;5.842;2022-09-09T03:07:43;14.60;99.90
39021;DHT22;25188;51.958;5.842;2022-09-09T03:10:08;14.60;99.90
39021;DHT22;25188;51.958;5.842;2022-09-09T03:12:35;14.60;99.90
39021;DHT22;25188;51.958;5.842;2022-09-09T03:15:01;14.60;99.90
39021;DHT22;25188;51.958;5.842;2022-09-09T03:17:26;14.60;99.90
39021;DHT22;25188;51.958;5.842;2022-09-09T03:19:53;14.60;99.90
39021;DHT22;25188;51.958;5.842;2022-09-09T03:22:20;14.60;99.90
39021;DHT22;25188;51.958;5.842;2022-09-09T03:24:46;14.70;99.90
39021;DHT22;25188;51.958;5.842;2022-09-09T03:27:12;14.60;99.90
39021;DHT22;25188;51.958;5.842;2022-09-09T03:29:40;14.60;99.90
39021;DHT22;25188;51.958;5.842;2022-09-09T03:32:05;14.70;99.90
39021;DHT22;25188;51.958;5.842;2022-09-09T03:34:31;14.60;99.90
39021;DHT22;25188;51.958;5.842;2022-09-09T03:36:57;14.60;99.90
39021;DHT22;25188;51.958;5.842;2022-09-09T03:39:22;14.60;99.90
39021;DHT22;25188;51.958;5.842;2022-09-09T03:41:48;14.60;99.90
39021;DHT22;25188;51.958;5.842;2022-09-09T03:44:14;14.60;99.90
39021;DHT22;25188;51.958;5.842;2022-09-09T03:46:40;14.60;99.90
39021;DHT22;25188;51.958;5.842;2022-09-09T03:49:06;14.60;99.90
39021;DHT22;25188;51.958;5.842;2022-09-09T03:51:31;14.60;99.90
39021;DHT22;25188;51.958;5.842;2022-09-09T03:53:59;14.70;99.90
39021;DHT22;25188;51.958;5.842;2022-09-09T03:56:25;14.60;99.90
39021;DHT22;25188;51.958;5.842;2022-09-09T03:58:50;14.70;99.90
39021;DHT22;25188;51.958;5.842;2022-09-09T04:01:16;14.70;99.90
39021;DHT22;25188;51.958;5.842;2022-09-09T04:03:43;14.70;99.90
39021;DHT22;25188;51.958;5.842;2022-09-09T04:06:14;14.80;99.90
39021;DHT22;25188;51.958;5.842;2022-09-09T04:08:40;14.70;99.90
39021;DHT22;25188;51.958;5.842;2022-09-09T04:11:07;14.80;99.90
39021;DHT22;25188;51.958;5.842;2022-09-09T04:13:37;14.80;99.90
39021;DHT22;25188;51.958;5.842;2022-09-09T04:16:04;14.80;99.90
39021;DHT22;25188;51.958;5.842;2022-09-09T04:18:30;14.80;99.90
39021;DHT22;25188;51.958;5.842;2022-09-09T04:20:57;14.80;99.90
39021;DHT22;25188;51.958;5.842;2022-09-09T04:23:24;14.80;99.90
39021;DHT22;25188;51.958;5.842;2022-09-09T04:25:52;14.80;99.90
39021;DHT22;25188;51.958;5.842;2022-09-09T04:28:19;14.80;99.90
39021;DHT22;25188;51.958;5.842;2022-09-09T04:30:46;14.80;99.90
39021;DHT22;25188;51.958;5.842;2022-09-09T04:33:13;14.80;99.90
39021;DHT22;25188;51.958;5.842;2022-09-09T04:35:39;14.90;99.90
39021;DHT22;25188;51.958;5.842;2022-09-09T04:38:09;14.90;99.90
39021;DHT22;25188;51.958;5.842;2022-09-09T04:40:35;14.80;99.90
39021;DHT22;25188;51.958;5.842;2022-09-09T04:43:01;14.80;99.90
39021;DHT22;25188;51.958;5.842;2022-09-09T04:45:30;14.90;99.90
39021;DHT22;25188;51.958;5.842;2022-09-09T04:47:56;14.90;99.90
39021;DHT22;25188;51.958;5.842;2022-09-09T04:50:22;14.90;99.90
39021;DHT22;25188;51.958;5.842;2022-09-09T04:52:47;15.00;99.90
39021;DHT22;25188;51.958;5.842;2022-09-09T04:55:14;15.00;99.90
39021;DHT22;25188;51.958;5.842;2022-09-09T04:57:40;15.00;99.90
39021;DHT22;25188;51.958;5.842;2022-09-09T05:00:06;15.00;99.90
39021;DHT22;25188;51.958;5.842;2022-09-09T05:02:32;15.10;99.90
39021;DHT22;25188;51.958;5.842;2022-09-09T05:04:58;15.10;99.90
39021;DHT22;25188;51.958;5.842;2022-09-09T05:07:26;15.10;99.90
39021;DHT22;25188;51.958;5.842;2022-09-09T05:09:52;15.10;99.90
39021;DHT22;25188;51.958;5.842;2022-09-09T05:12:18;15.10;99.90
39021;DHT22;25188;51.958;5.842;2022-09-09T05:14:44;15.20;99.90
39021;DHT22;25188;51.958;5.842;2022-09-09T05:17:10;15.10;99.90
39021;DHT22;25188;51.958;5.842;2022-09-09T05:19:36;15.20;99.90
39021;DHT22;25188;51.958;5.842;2022-09-09T05:22:02;15.20;99.90
39021;DHT22;25188;51.958;5.842;2022-09-09T05:24:28;15.20;99.90
39021;DHT22;25188;51.958;5.842;2022-09-09T05:26:54;15.20;99.90
39021;DHT22;25188;51.958;5.842;2022-09-09T05:29:23;15.20;99.90
39021;DHT22;25188;51.958;5.842;2022-09-09T05:31:49;15.30;99.90
39021;DHT22;25188;51.958;5.842;2022-09-09T05:34:14;15.20;99.90
39021;DHT22;25188;51.958;5.842;2022-09-09T05:36:40;15.20;99.90
39021;DHT22;25188;51.958;5.842;2022-09-09T05:39:05;15.30;99.90
39021;DHT22;25188;51.958;5.842;2022-09-09T05:41:31;15.20;99.90
39021;DHT22;25188;51.958;5.842;2022-09-09T05:43:57;15.20;99.90
39021;DHT22;25188;51.958;5.842;2022-09-09T05:46:24;15.30;99.90
39021;DHT22;25188;51.958;5.842;2022-09-09T05:48:51;15.20;99.90
39021;DHT22;25188;51.958;5.842;2022-09-09T05:51:19;15.30;99.90
39021;DHT22;25188;51.958;5.842;2022-09-09T05:53:46;15.20;99.90
39021;DHT22;25188;51.958;5.842;2022-09-09T05:58:43;15.30;99.90
39021;DHT22;25188;51.958;5.842;2022-09-09T06:01:15;15.30;99.90
39021;DHT22;25188;51.958;5.842;2022-09-09T06:03:42;15.30;99.90
39021;DHT22;25188;51.958;5.842;2022-09-09T06:06:13;15.40;99.90
39021;DHT22;25188;51.958;5.842;2022-09-09T06:08:42;15.40;99.90
39021;DHT22;25188;51.958;5.842;2022-09-09T06:11:24;15.40;99.90
39021;DHT22;25188;51.958;5.842;2022-09-09T06:13:50;15.40;99.90
39021;DHT22;25188;51.958;5.842;2022-09-09T06:16:21;15.40;99.90
39021;DHT22;25188;51.958;5.842;2022-09-09T06:18:54;15.50;99.90
39021;DHT22;25188;51.958;5.842;2022-09-09T06:21:22;15.60;99.90
39021;DHT22;25188;51.958;5.842;2022-09-09T06:23:49;15.60;99.90
39021;DHT22;25188;51.958;5.842;2022-09-09T06:26:18;15.60;99.90
39021;DHT22;25188;51.958;5.842;2022-09-09T06:28:48;15.70;99.90
39021;DHT22;25188;51.958;5.842;2022-09-09T06:31:16;15.70;99.90
39021;DHT22;25188;51.958;5.842;2022-09-09T06:33:51;15.70;99.90
39021;DHT22;25188;51.958;5.842;2022-09-09T06:36:22;15.70;99.90
39021;DHT22;25188;51.958;5.842;2022-09-09T06:38:49;15.60;99.90
39021;DHT22;25188;51.958;5.842;2022-09-09T06:41:17;15.60;99.90
39021;DHT22;25188;51.958;5.842;2022-09-09T06:43:44;15.70;99.90
39021;DHT22;25188;51.958;5.842;2022-09-09T06:46:13;15.70;99.90
39021;DHT22;25188;51.958;5.842;2022-09-09T06:48:40;15.70;99.90
39021;DHT22;25188;51.958;5.842;2022-09-09T06:51:07;15.70;99.90
39021;DHT22;25188;51.958;5.842;2022-09-09T06:53:35;15.70;99.90
39021;DHT22;25188;51.958;5.842;2022-09-09T06:56:22;15.80;99.90
39021;DHT22;25188;51.958;5.842;2022-09-09T06:58:52;15.80;99.90
39021;DHT22;25188;51.958;5.842;2022-09-09T07:01:23;15.80;99.90
39021;DHT22;25188;51.958;5.842;2022-09-09T07:03:51;15.80;99.90
39021;DHT22;25188;51.958;5.842;2022-09-09T07:06:22;15.80;99.90
39021;DHT22;25188;51.958;5.842;2022-09-09T07:08:51;15.90;99.90
39021;DHT22;25188;51.958;5.842;2022-09-09T07:11:19;15.90;99.90
39021;DHT22;25188;51.958;5.842;2022-09-09T07:13:45;15.90;99.90
39021;DHT22;25188;51.958;5.842;2022-09-09T07:16:13;16.00;99.90
39021;DHT22;25188;51.958;5.842;2022-09-09T07:18:39;16.00;99.90
39021;DHT22;25188;51.958;5.842;2022-09-09T07:21:07;16.00;99.90
39021;DHT22;25188;51.958;5.842;2022-09-09T07:23:34;16.10;99.90
39021;DHT22;25188;51.958;5.842;2022-09-09T07:26:02;16.10;99.90
39021;DHT22;25188;51.958;5.842;2022-09-09T07:28:27;16.10;99.90
39021;DHT22;25188;51.958;5.842;2022-09-09T07:30:56;16.20;99.90
39021;DHT22;25188;51.958;5.842;2022-09-09T07:33:23;16.20;99.90
39021;DHT22;25188;51.958;5.842;2022-09-09T07:35:49;16.30;99.90
39021;DHT22;25188;51.958;5.842;2022-09-09T07:38:15;16.30;99.90
39021;DHT22;25188;51.958;5.842;2022-09-09T07:40:41;16.40;99.90
39021;DHT22;25188;51.958;5.842;2022-09-09T07:43:07;16.50;99.90
39021;DHT22;25188;51.958;5.842;2022-09-09T07:45:34;16.50;99.90
39021;DHT22;25188;51.958;5.842;2022-09-09T07:48:00;16.70;99.90
39021;DHT22;25188;51.958;5.842;2022-09-09T07:50:26;16.70;99.90
39021;DHT22;25188;51.958;5.842;2022-09-09T07:52:52;16.80;99.90
39021;DHT22;25188;51.958;5.842;2022-09-09T07:55:22;16.90;99.90
39021;DHT22;25188;51.958;5.842;2022-09-09T07:57:51;17.00;99.90
39021;DHT22;25188;51.958;5.842;2022-09-09T08:00:17;17.10;99.90
39021;DHT22;25188;51.958;5.842;2022-09-09T08:02:45;17.10;99.90
39021;DHT22;25188;51.958;5.842;2022-09-09T08:05:11;17.20;99.90
39021;DHT22;25188;51.958;5.842;2022-09-09T08:07:38;17.20;99.40
39021;DHT22;25188;51.958;5.842;2022-09-09T08:10:04;17.30;99.40
39021;DHT22;25188;51.958;5.842;2022-09-09T08:12:30;17.30;98.90
39021;DHT22;25188;51.958;5.842;2022-09-09T08:14:55;17.30;98.70
39021;DHT22;25188;51.958;5.842;2022-09-09T08:17:21;17.30;99.30
39021;DHT22;25188;51.958;5.842;2022-09-09T08:19:47;17.40;98.80
39021;DHT22;25188;51.958;5.842;2022-09-09T08:22:12;17.40;98.90
39021;DHT22;25188;51.958;5.842;2022-09-09T08:24:40;17.50;98.70
39021;DHT22;25188;51.958;5.842;2022-09-09T08:27:06;17.50;98.20
39021;DHT22;25188;51.958;5.842;2022-09-09T08:29:32;17.50;97.70
39021;DHT22;25188;51.958;5.842;2022-09-09T08:31:58;17.50;97.50
39021;DHT22;25188;51.958;5.842;2022-09-09T08:34:24;17.50;97.40
39021;DHT22;25188;51.958;5.842;2022-09-09T08:36:51;17.50;97.40
39021;DHT22;25188;51.958;5.842;2022-09-09T08:39:19;17.50;97.40
39021;DHT22;25188;51.958;5.842;2022-09-09T08:42:04;17.50;97.50
39021;DHT22;25188;51.958;5.842;2022-09-09T08:52:23;17.60;96.70
39021;DHT22;25188;51.958;5.842;2022-09-09T08:54:51;17.60;96.10
39021;DHT22;25188;51.958;5.842;2022-09-09T08:57:23;17.60;95.90
39021;DHT22;25188;51.958;5.842;2022-09-09T08:59:55;17.70;95.40
39021;DHT22;25188;51.958;5.842;2022-09-09T09:02:39;17.70;95.50
39021;DHT22;25188;51.958;5.842;2022-09-09T09:06:13;17.70;95.60
39021;DHT22;25188;51.958;5.842;2022-09-09T09:10:50;18.00;95.70
39021;DHT22;25188;51.958;5.842;2022-09-09T09:17:06;18.10;94.80
39021;DHT22;25188;51.958;5.842;2022-09-09T09:19:40;18.00;94.10
39021;DHT22;25188;51.958;5.842;2022-09-09T09:22:22;18.10;93.40
39021;DHT22;25188;51.958;5.842;2022-09-09T09:25:34;18.00;93.60
39021;DHT22;25188;51.958;5.842;2022-09-09T09:30:36;18.00;93.40
39021;DHT22;25188;51.958;5.842;2022-09-09T09:33:52;17.90;93.40
39021;DHT22;25188;51.958;5.842;2022-09-09T09:36:19;17.90;93.50
39021;DHT22;25188;51.958;5.842;2022-09-09T09:38:56;18.00;93.80
39021;DHT22;25188;51.958;5.842;2022-09-09T09:41:30;18.00;93.60
39021;DHT22;25188;51.958;5.842;2022-09-09T09:43:56;18.10;93.50
39021;DHT22;25188;51.958;5.842;2022-09-09T09:46:24;18.20;93.70
39021;DHT22;25188;51.958;5.842;2022-09-09T09:49:04;18.30;93.70
39021;DHT22;25188;51.958;5.842;2022-09-09T09:51:32;18.40;93.50
39021;DHT22;25188;51.958;5.842;2022-09-09T09:54:31;18.60;93.50
39021;DHT22;25188;51.958;5.842;2022-09-09T09:57:12;18.80;93.20
39021;DHT22;25188;51.958;5.842;2022-09-09T09:59:39;18.90;92.50
39021;DHT22;25188;51.958;5.842;2022-09-09T10:04:40;18.90;91.60
39021;DHT22;25188;51.958;5.842;2022-09-09T10:07:20;18.90;91.10
39021;DHT22;25188;51.958;5.842;2022-09-09T10:09:54;18.80;91.10
39021;DHT22;25188;51.958;5.842;2022-09-09T10:15:30;18.70;91.20
39021;DHT22;25188;51.958;5.842;2022-09-09T10:24:45;18.60;91.00
39021;DHT22;25188;51.958;5.842;2022-09-09T10:27:52;18.60;91.10
39021;DHT22;25188;51.958;5.842;2022-09-09T10:33:10;18.70;91.10
39021;DHT22;25188;51.958;5.842;2022-09-09T10:38:41;18.80;90.70
39021;DHT22;25188;51.958;5.842;2022-09-09T10:41:56;18.70;90.60
39021;DHT22;25188;51.958;5.842;2022-09-09T10:44:58;18.70;90.50
39021;DHT22;25188;51.958;5.842;2022-09-09T10:53:29;18.80;90.70
39021;DHT22;25188;51.958;5.842;2022-09-09T10:56:21;19.00;90.90
39021;DHT22;25188;51.958;5.842;2022-09-09T10:59:00;19.20;90.60
39021;DHT22;25188;51.958;5.842;2022-09-09T11:01:33;19.30;90.00
39021;DHT22;25188;51.958;5.842;2022-09-09T11:04:03;19.30;89.60
39021;DHT22;25188;51.958;5.842;2022-09-09T11:06:37;19.20;90.00
39021;DHT22;25188;51.958;5.842;2022-09-09T11:09:05;19.10;90.10
39021;DHT22;25188;51.958;5.842;2022-09-09T11:11:38;19.10;90.40
39021;DHT22;25188;51.958;5.842;2022-09-09T11:16:52;18.90;90.50
39021;DHT22;25188;51.958;5.842;2022-09-09T11:21:55;18.80;91.70
39021;DHT22;25188;51.958;5.842;2022-09-09T11:27:05;18.80;92.70
39021;DHT22;25188;51.958;5.842;2022-09-09T11:40:22;19.20;92.80
39021;DHT22;25188;51.958;5.842;2022-09-09T11:42:48;19.30;92.60
39021;DHT22;25188;51.958;5.842;2022-09-09T11:45:27;19.50;92.50
39021;DHT22;25188;51.958;5.842;2022-09-09T11:48:00;19.70;92.20
39021;DHT22;25188;51.958;5.842;2022-09-09T11:55:34;19.60;91.10
39021;DHT22;25188;51.958;5.842;2022-09-09T11:58:15;19.60;91.00
39021;DHT22;25188;51.958;5.842;2022-09-09T12:00:44;19.70;91.30
39021;DHT22;25188;51.958;5.842;2022-09-09T12:06:25;20.70;91.70
39021;DHT22;25188;51.958;5.842;2022-09-09T12:09:21;21.30;90.80
39021;DHT22;25188;51.958;5.842;2022-09-09T12:11:50;21.50;88.00
39021;DHT22;25188;51.958;5.842;2022-09-09T12:14:42;21.30;86.40
39021;DHT22;25188;51.958;5.842;2022-09-09T12:17:25;21.10;85.80
39021;DHT22;25188;51.958;5.842;2022-09-09T12:20:22;20.90;85.70
39021;DHT22;25188;51.958;5.842;2022-09-09T12:25:58;20.40;85.70
39021;DHT22;25188;51.958;5.842;2022-09-09T12:31:11;20.10;86.60
39021;DHT22;25188;51.958;5.842;2022-09-09T12:33:44;20.10;87.30
39021;DHT22;25188;51.958;5.842;2022-09-09T12:36:30;20.00;87.90
39021;DHT22;25188;51.958;5.842;2022-09-09T12:39:08;20.10;88.10
39021;DHT22;25188;51.958;5.842;2022-09-09T12:41:38;20.20;88.20
39021;DHT22;25188;51.958;5.842;2022-09-09T12:44:05;20.30;88.30
39021;DHT22;25188;51.958;5.842;2022-09-09T12:46:42;20.50;87.80
39021;DHT22;25188;51.958;5.842;2022-09-09T12:52:14;20.50;86.30
39021;DHT22;25188;51.958;5.842;2022-09-09T12:54:44;20.30;86.20
39021;DHT22;25188;51.958;5.842;2022-09-09T12:57:13;20.20;86.50
39021;DHT22;25188;51.958;5.842;2022-09-09T12:59:41;20.10;87.10
39021;DHT22;25188;51.958;5.842;2022-09-09T13:02:28;20.10;87.30
39021;DHT22;25188;51.958;5.842;2022-09-09T13:04:54;19.90;87.50
39021;DHT22;25188;51.958;5.842;2022-09-09T13:07:21;19.80;88.20
39021;DHT22;25188;51.958;5.842;2022-09-09T13:09:48;19.70;89.90
39021;DHT22;25188;51.958;5.842;2022-09-09T13:12:18;19.60;90.50
39021;DHT22;25188;51.958;5.842;2022-09-09T13:14:50;19.40;90.90
39021;DHT22;25188;51.958;5.842;2022-09-09T13:17:25;19.50;91.30
39021;DHT22;25188;51.958;5.842;2022-09-09T13:19:56;19.60;91.20
39021;DHT22;25188;51.958;5.842;2022-09-09T13:22:35;19.70;91.10
39021;DHT22;25188;51.958;5.842;2022-09-09T13:28:04;19.80;90.80
39021;DHT22;25188;51.958;5.842;2022-09-09T13:30:35;19.90;90.40
39021;DHT22;25188;51.958;5.842;2022-09-09T13:33:19;19.90;90.40
39021;DHT22;25188;51.958;5.842;2022-09-09T13:35:58;20.00;90.70
39021;DHT22;25188;51.958;5.842;2022-09-09T13:38:25;20.10;90.20
39021;DHT22;25188;51.958;5.842;2022-09-09T13:41:04;20.10;90.00
39021;DHT22;25188;51.958;5.842;2022-09-09T13:43:57;20.10;90.00
39021;DHT22;25188;51.958;5.842;2022-09-09T13:46:40;20.10;90.00
39021;DHT22;25188;51.958;5.842;2022-09-09T13:51:50;20.00;89.40
39021;DHT22;25188;51.958;5.842;2022-09-09T13:54:19;20.00;89.40
39021;DHT22;25188;51.958;5.842;2022-09-09T13:56:45;19.90;89.10
39021;DHT22;25188;51.958;5.842;2022-09-09T13:59:17;19.90;89.20
39021;DHT22;25188;51.958;5.842;2022-09-09T14:01:45;19.80;89.60
39021;DHT22;25188;51.958;5.842;2022-09-09T14:04:21;19.90;89.70
39021;DHT22;25188;51.958;5.842;2022-09-09T14:09:42;20.20;88.90
39021;DHT22;25188;51.958;5.842;2022-09-09T14:12:12;20.30;87.70
39021;DHT22;25188;51.958;5.842;2022-09-09T14:14:44;20.30;87.20
39021;DHT22;25188;51.958;5.842;2022-09-09T14:17:10;20.20;85.60
39021;DHT22;25188;51.958;5.842;2022-09-09T14:19:36;20.10;85.90
39021;DHT22;25188;51.958;5.842;2022-09-09T14:22:02;20.00;86.60
39021;DHT22;25188;51.958;5.842;2022-09-09T14:24:28;20.00;86.90
39021;DHT22;25188;51.958;5.842;2022-09-09T14:26:58;19.90;86.90
39021;DHT22;25188;51.958;5.842;2022-09-09T14:29:26;19.90;87.00
39021;DHT22;25188;51.958;5.842;2022-09-09T14:31:52;19.80;87.00
39021;DHT22;25188;51.958;5.842;2022-09-09T14:34:29;19.80;87.50
39021;DHT22;25188;51.958;5.842;2022-09-09T14:36:58;19.90;87.50
39021;DHT22;25188;51.958;5.842;2022-09-09T14:39:28;19.90;87.80
39021;DHT22;25188;51.958;5.842;2022-09-09T14:41:54;20.00;88.00
39021;DHT22;25188;51.958;5.842;2022-09-09T14:44:22;20.00;87.70
39021;DHT22;25188;51.958;5.842;2022-09-09T14:46:48;20.10;87.60
39021;DHT22;25188;51.958;5.842;2022-09-09T14:49:15;20.10;87.60
39021;DHT22;25188;51.958;5.842;2022-09-09T14:51:44;20.20;88.00
39021;DHT22;25188;51.958;5.842;2022-09-09T14:54:12;20.40;88.00
39021;DHT22;25188;51.958;5.842;2022-09-09T14:56:40;20.40;87.30
39021;DHT22;25188;51.958;5.842;2022-09-09T14:59:08;20.60;86.90
39021;DHT22;25188;51.958;5.842;2022-09-09T15:01:34;20.60;86.40
39021;DHT22;25188;51.958;5.842;2022-09-09T15:04:04;20.60;85.80
39021;DHT22;25188;51.958;5.842;2022-09-09T15:06:38;20.50;85.90
39021;DHT22;25188;51.958;5.842;2022-09-09T15:09:04;20.50;86.00
39021;DHT22;25188;51.958;5.842;2022-09-09T15:11:42;20.40;86.10
39021;DHT22;25188;51.958;5.842;2022-09-09T15:14:09;20.40;85.80
39021;DHT22;25188;51.958;5.842;2022-09-09T15:16:35;20.40;86.00
39021;DHT22;25188;51.958;5.842;2022-09-09T15:19:03;20.30;86.30
39021;DHT22;25188;51.958;5.842;2022-09-09T15:21:32;20.30;86.90
39021;DHT22;25188;51.958;5.842;2022-09-09T15:24:15;20.20;87.40
39021;DHT22;25188;51.958;5.842;2022-09-09T15:26:50;20.10;87.90
39021;DHT22;25188;51.958;5.842;2022-09-09T15:29:20;20.00;88.20
39021;DHT22;25188;51.958;5.842;2022-09-09T15:31:46;20.00;88.60
39021;DHT22;25188;51.958;5.842;2022-09-09T15:34:12;19.90;89.00
39021;DHT22;25188;51.958;5.842;2022-09-09T15:36:45;19.80;89.10
39021;DHT22;25188;51.958;5.842;2022-09-09T15:39:13;19.90;89.50
39021;DHT22;25188;51.958;5.842;2022-09-09T15:41:44;19.80;89.60
39021;DHT22;25188;51.958;5.842;2022-09-09T15:44:14;19.80;89.70
39021;DHT22;25188;51.958;5.842;2022-09-09T15:49:11;19.80;90.00
39021;DHT22;25188;51.958;5.842;2022-09-09T15:51:42;19.80;90.00
39021;DHT22;25188;51.958;5.842;2022-09-09T15:54:15;19.80;90.00
39021;DHT22;25188;51.958;5.842;2022-09-09T15:56:46;19.70;90.00
39021;DHT22;25188;51.958;5.842;2022-09-09T15:59:13;19.70;89.90
39021;DHT22;25188;51.958;5.842;2022-09-09T16:01:40;19.60;91.30
39021;DHT22;25188;51.958;5.842;2022-09-09T16:04:06;19.40;92.80
39021;DHT22;25188;51.958;5.842;2022-09-09T16:06:32;19.10;92.60
39021;DHT22;25188;51.958;5.842;2022-09-09T16:08:58;18.80;93.20
39021;DHT22;25188;51.958;5.842;2022-09-09T16:11:32;18.50;94.40
39021;DHT22;25188;51.958;5.842;2022-09-09T16:13:58;18.20;94.90
39021;DHT22;25188;51.958;5.842;2022-09-09T16:16:26;18.10;95.60
39021;DHT22;25188;51.958;5.842;2022-09-09T16:18:58;17.90;96.10
39021;DHT22;25188;51.958;5.842;2022-09-09T16:21:25;17.80;96.50
39021;DHT22;25188;51.958;5.842;2022-09-09T16:23:52;17.80;96.80
39021;DHT22;25188;51.958;5.842;2022-09-09T16:26:19;17.80;97.10
39021;DHT22;25188;51.958;5.842;2022-09-09T16:28:45;17.80;97.40
39021;DHT22;25188;51.958;5.842;2022-09-09T16:31:17;17.70;97.60
39021;DHT22;25188;51.958;5.842;2022-09-09T16:33:44;17.70;97.90
39021;DHT22;25188;51.958;5.842;2022-09-09T16:36:12;17.70;98.20
39021;DHT22;25188;51.958;5.842;2022-09-09T16:38:39;17.60;98.60
39021;DHT22;25188;51.958;5.842;2022-09-09T16:41:06;17.60;98.60
39021;DHT22;25188;51.958;5.842;2022-09-09T16:43:35;17.60;99.00
39021;DHT22;25188;51.958;5.842;2022-09-09T16:46:02;17.60;99.20
39021;DHT22;25188;51.958;5.842;2022-09-09T16:48:32;17.50;99.30
39021;DHT22;25188;51.958;5.842;2022-09-09T16:51:06;17.50;99.40
39021;DHT22;25188;51.958;5.842;2022-09-09T16:53:32;17.50;99.70
39021;DHT22;25188;51.958;5.842;2022-09-09T16:56:04;17.40;99.60
39021;DHT22;25188;51.958;5.842;2022-09-09T16:58:29;17.40;99.70
39021;DHT22;25188;51.958;5.842;2022-09-09T17:01:02;17.40;99.70
39021;DHT22;25188;51.958;5.842;2022-09-09T17:03:29;17.40;99.70
39021;DHT22;25188;51.958;5.842;2022-09-09T17:05:54;17.40;99.80
39021;DHT22;25188;51.958;5.842;2022-09-09T17:08:21;17.40;99.90
39021;DHT22;25188;51.958;5.842;2022-09-09T17:10:47;17.40;99.90
39021;DHT22;25188;51.958;5.842;2022-09-09T17:13:13;17.30;99.90
39021;DHT22;25188;51.958;5.842;2022-09-09T17:15:42;17.30;99.90
39021;DHT22;25188;51.958;5.842;2022-09-09T17:18:10;17.30;99.90
39021;DHT22;25188;51.958;5.842;2022-09-09T17:20:40;17.30;99.90
39021;DHT22;25188;51.958;5.842;2022-09-09T17:23:08;17.30;99.90
39021;DHT22;25188;51.958;5.842;2022-09-09T17:25:35;17.20;99.90
39021;DHT22;25188;51.958;5.842;2022-09-09T17:28:01;17.20;99.90
39021;DHT22;25188;51.958;5.842;2022-09-09T17:30:36;17.20;99.90
39021;DHT22;25188;51.958;5.842;2022-09-09T17:33:03;17.20;99.90
39021;DHT22;25188;51.958;5.842;2022-09-09T17:35:30;17.10;99.90
39021;DHT22;25188;51.958;5.842;2022-09-09T17:37:58;17.10;99.90
39021;DHT22;25188;51.958;5.842;2022-09-09T17:40:24;17.10;99.90
39021;DHT22;25188;51.958;5.842;2022-09-09T17:42:50;17.10;99.90
39021;DHT22;25188;51.958;5.842;2022-09-09T17:45:15;17.10;99.90
39021;DHT22;25188;51.958;5.842;2022-09-09T17:47:41;17.10;99.90
39021;DHT22;25188;51.958;5.842;2022-09-09T17:50:09;17.00;99.90
39021;DHT22;25188;51.958;5.842;2022-09-09T17:52:36;17.00;99.90
39021;DHT22;25188;51.958;5.842;2022-09-09T17:55:04;17.00;99.90
39021;DHT22;25188;51.958;5.842;2022-09-09T17:57:29;17.00;99.90
39021;DHT22;25188;51.958;5.842;2022-09-09T17:59:55;17.00;99.90
39021;DHT22;25188;51.958;5.842;2022-09-09T18:02:21;17.00;99.90
39021;DHT22;25188;51.958;5.842;2022-09-09T18:04:46;17.00;99.90
39021;DHT22;25188;51.958;5.842;2022-09-09T18:07:12;17.00;99.90
39021;DHT22;25188;51.958;5.842;2022-09-09T18:09:38;17.00;99.90